sensor_id;sensor_type;location;lat;lon;timestamp;temperature;humidity
1429;DHT22;708;51.442;7.016;2023-05-07T00:00:46;16.80;1.00
1429;DHT22;708;51.442;7.016;2023-05-07T00:03:15;16.80;1.00
1429;DHT22;708;51.442;7.016;2023-05-07T00:05:41;16.90;1.00
1429;DHT22;708;51.442;7.016;2023-05-07T00:08:08;16.90;1.00
1429;DHT22;708;51.442;7.016;2023-05-07T00:10:35;16.90;1.00
1429;DHT22;708;51.442;7.016;2023-05-07T00:13:01;16.90;1.00
1429;DHT22;708;51.442;7.016;2023-05-07T00:15:28;16.90;1.00
1429;DHT22;708;51.442;7.016;2023-05-07T00:17:55;16.90;1.00
1429;DHT22;708;51.442;7.016;2023-05-07T00:20:25;16.90;1.00
1429;DHT22;708;51.442;7.016;2023-05-07T00:22:52;17.00;1.00
1429;DHT22;708;51.442;7.016;2023-05-07T00:25:19;17.00;1.00
1429;DHT22;708;51.442;7.016;2023-05-07T00:27:45;17.00;1.00
1429;DHT22;708;51.442;7.016;2023-05-07T00:30:12;16.90;1.00
1429;DHT22;708;51.442;7.016;2023-05-07T00:32:40;16.90;1.00
1429;DHT22;708;51.442;7.016;2023-05-07T00:35:07;16.90;1.00
1429;DHT22;708;51.442;7.016;2023-05-07T00:37:36;16.90;1.00
1429;DHT22;708;51.442;7.016;2023-05-07T00:40:03;16.90;1.00
1429;DHT22;708;51.442;7.016;2023-05-07T00:42:32;16.90;1.00
1429;DHT22;708;51.442;7.016;2023-05-07T00:44:59;16.90;1.00
1429;DHT22;708;51.442;7.016;2023-05-07T00:47:26;16.90;1.00
1429;DHT22;708;51.442;7.016;2023-05-07T00:49:52;16.80;1.00
1429;DHT22;708;51.442;7.016;2023-05-07T00:52:21;16.70;1.00
1429;DHT22;708;51.442;7.016;2023-05-07T00:54:49;16.70;1.00
1429;DHT22;708;51.442;7.016;2023-05-07T00:57:16;16.60;1.00
1429;DHT22;708;51.442;7.016;2023-05-07T00:59:43;16.60;1.00
1429;DHT22;708;51.442;7.016;2023-05-07T01:02:10;16.50;1.70
1429;DHT22;708;51.442;7.016;2023-05-07T01:04:37;16.40;5.00
1429;DHT22;708;51.442;7.016;2023-05-07T01:07:05;16.30;14.00
1429;DHT22;708;51.442;7.016;2023-05-07T01:09:32;16.20;28.90
1429;DHT22;708;51.442;7.016;2023-05-07T01:12:02;16.20;43.60
1429;DHT22;708;51.442;7.016;2023-05-07T01:14:29;16.20;54.20
1429;DHT22;708;51.442;7.016;2023-05-07T01:16:58;16.20;62.80
1429;DHT22;708;51.442;7.016;2023-05-07T01:19:25;16.20;65.70
1429;DHT22;708;51.442;7.016;2023-05-07T01:22:07;16.20;75.20
1429;DHT22;708;51.442;7.016;2023-05-07T01:24:36;16.20;88.70
1429;DHT22;708;51.442;7.016;2023-05-07T01:27:04;16.20;90.00
1429;DHT22;708;51.442;7.016;2023-05-07T01:29:30;16.20;85.60
1429;DHT22;708;51.442;7.016;2023-05-07T01:31:59;16.20;82.40
1429;DHT22;708;51.442;7.016;2023-05-07T01:34:28;16.20;81.50
1429;DHT22;708;51.442;7.016;2023-05-07T01:36:55;16.20;74.90
1429;DHT22;708;51.442;7.016;2023-05-07T01:39:25;16.20;75.10
1429;DHT22;708;51.442;7.016;2023-05-07T01:41:54;16.20;82.60
1429;DHT22;708;51.442;7.016;2023-05-07T01:44:21;16.20;80.40
1429;DHT22;708;51.442;7.016;2023-05-07T01:46:48;16.20;76.80
1429;DHT22;708;51.442;7.016;2023-05-07T01:49:15;16.20;72.50
1429;DHT22;708;51.442;7.016;2023-05-07T01:51:43;16.20;67.00
1429;DHT22;708;51.442;7.016;2023-05-07T01:54:10;16.20;71.00
1429;DHT22;708;51.442;7.016;2023-05-07T01:56:36;16.10;80.10
1429;DHT22;708;51.442;7.016;2023-05-07T01:59:05;16.10;85.90
1429;DHT22;708;51.442;7.016;2023-05-07T02:01:31;16.10;88.20
1429;DHT22;708;51.442;7.016;2023-05-07T02:03:58;16.10;87.30
1429;DHT22;708;51.442;7.016;2023-05-07T02:06:25;16.10;87.90
1429;DHT22;708;51.442;7.016;2023-05-07T02:08:52;16.10;92.20
1429;DHT22;708;51.442;7.016;2023-05-07T02:11:18;16.00;94.50
1429;DHT22;708;51.442;7.016;2023-05-07T02:13:45;16.00;97.10
1429;DHT22;708;51.442;7.016;2023-05-07T02:16:13;16.00;97.60
1429;DHT22;708;51.442;7.016;2023-05-07T02:18:40;16.00;98.90
1429;DHT22;708;51.442;7.016;2023-05-07T02:21:07;16.00;99.40
1429;DHT22;708;51.442;7.016;2023-05-07T02:23:34;15.90;99.90
1429;DHT22;708;51.442;7.016;2023-05-07T02:26:00;16.00;99.90
1429;DHT22;708;51.442;7.016;2023-05-07T02:28:27;16.00;99.90
1429;DHT22;708;51.442;7.016;2023-05-07T02:30:54;16.00;99.90
1429;DHT22;708;51.442;7.016;2023-05-07T02:33:22;15.90;99.90
1429;DHT22;708;51.442;7.016;2023-05-07T02:35:49;15.90;99.90
1429;DHT22;708;51.442;7.016;2023-05-07T02:38:17;15.90;99.90
1429;DHT22;708;51.442;7.016;2023-05-07T02:40:44;15.80;99.90
1429;DHT22;708;51.442;7.016;2023-05-07T02:43:11;15.80;99.90
1429;DHT22;708;51.442;7.016;2023-05-07T02:45:37;15.80;99.90
1429;DHT22;708;51.442;7.016;2023-05-07T02:48:05;15.80;99.90
1429;DHT22;708;51.442;7.016;2023-05-07T02:50:33;15.70;99.90
1429;DHT22;708;51.442;7.016;2023-05-07T02:53:00;15.80;99.90
1429;DHT22;708;51.442;7.016;2023-05-07T02:55:26;15.80;99.90
1429;DHT22;708;51.442;7.016;2023-05-07T02:57:53;15.80;99.90
1429;DHT22;708;51.442;7.016;2023-05-07T03:00:21;15.80;99.90
1429;DHT22;708;51.442;7.016;2023-05-07T03:02:48;15.70;99.90
1429;DHT22;708;51.442;7.016;2023-05-07T03:05:14;15.80;99.90
1429;DHT22;708;51.442;7.016;2023-05-07T03:07:42;15.70;99.90
1429;DHT22;708;51.442;7.016;2023-05-07T03:10:11;15.60;99.90
1429;DHT22;708;51.442;7.016;2023-05-07T03:12:38;15.60;99.90
1429;DHT22;708;51.442;7.016;2023-05-07T03:15:05;15.60;99.90
1429;DHT22;708;51.442;7.016;2023-05-07T03:17:33;15.60;99.90
1429;DHT22;708;51.442;7.016;2023-05-07T03:20:00;15.60;99.90
1429;DHT22;708;51.442;7.016;2023-05-07T03:22:27;15.60;99.90
1429;DHT22;708;51.442;7.016;2023-05-07T03:24:55;15.60;99.90
1429;DHT22;708;51.442;7.016;2023-05-07T03:27:22;15.70;99.90
1429;DHT22;708;51.442;7.016;2023-05-07T03:29:48;15.70;99.90
1429;DHT22;708;51.442;7.016;2023-05-07T03:32:15;15.70;99.90
1429;DHT22;708;51.442;7.016;2023-05-07T03:34:42;15.70;99.90
1429;DHT22;708;51.442;7.016;2023-05-07T03:37:08;15.80;99.90
1429;DHT22;708;51.442;7.016;2023-05-07T03:39:35;15.80;99.90
1429;DHT22;708;51.442;7.016;2023-05-07T03:42:04;15.80;99.90
1429;DHT22;708;51.442;7.016;2023-05-07T03:44:30;15.70;99.90
1429;DHT22;708;51.442;7.016;2023-05-07T03:46:57;15.70;99.90
1429;DHT22;708;51.442;7.016;2023-05-07T03:49:24;15.70;99.90
1429;DHT22;708;51.442;7.016;2023-05-07T03:51:51;15.60;99.90
1429;DHT22;708;51.442;7.016;2023-05-07T03:54:17;15.60;99.90
1429;DHT22;708;51.442;7.016;2023-05-07T03:56:44;15.50;99.90
1429;DHT22;708;51.442;7.016;2023-05-07T03:59:13;15.50;99.90
1429;DHT22;708;51.442;7.016;2023-05-07T04:01:40;15.60;99.90
1429;DHT22;708;51.442;7.016;2023-05-07T04:04:07;15.60;99.90
1429;DHT22;708;51.442;7.016;2023-05-07T04:06:33;15.60;99.90
1429;DHT22;708;51.442;7.016;2023-05-07T04:09:00;15.50;99.90
1429;DHT22;708;51.442;7.016;2023-05-07T04:11:27;15.60;99.90
1429;DHT22;708;51.442;7.016;2023-05-07T04:13:54;15.60;99.90
1429;DHT22;708;51.442;7.016;2023-05-07T04:16:22;15.60;99.90
1429;DHT22;708;51.442;7.016;2023-05-07T04:18:49;15.60;99.90
1429;DHT22;708;51.442;7.016;2023-05-07T04:21:16;15.60;99.90
1429;DHT22;708;51.442;7.016;2023-05-07T04:23:43;15.60;99.90
1429;DHT22;708;51.442;7.016;2023-05-07T04:26:10;15.70;99.90
1429;DHT22;708;51.442;7.016;2023-05-07T04:28:37;15.70;99.90
1429;DHT22;708;51.442;7.016;2023-05-07T04:31:04;15.70;99.90
1429;DHT22;708;51.442;7.016;2023-05-07T04:33:33;15.80;99.90
1429;DHT22;708;51.442;7.016;2023-05-07T04:36:01;15.70;99.90
1429;DHT22;708;51.442;7.016;2023-05-07T04:38:29;15.80;99.90
1429;DHT22;708;51.442;7.016;2023-05-07T04:40:56;15.70;99.90
1429;DHT22;708;51.442;7.016;2023-05-07T04:43:23;15.80;99.90
1429;DHT22;708;51.442;7.016;2023-05-07T04:45:50;15.90;99.90
1429;DHT22;708;51.442;7.016;2023-05-07T04:48:17;16.00;99.90
1429;DHT22;708;51.442;7.016;2023-05-07T04:50:47;16.00;99.90
1429;DHT22;708;51.442;7.016;2023-05-07T04:53:14;16.10;99.90
1429;DHT22;708;51.442;7.016;2023-05-07T04:55:41;16.10;99.90
1429;DHT22;708;51.442;7.016;2023-05-07T04:58:08;16.10;99.90
1429;DHT22;708;51.442;7.016;2023-05-07T05:00:35;16.20;99.90
1429;DHT22;708;51.442;7.016;2023-05-07T05:03:02;16.20;99.90
1429;DHT22;708;51.442;7.016;2023-05-07T05:05:28;16.10;99.90
1429;DHT22;708;51.442;7.016;2023-05-07T05:07:57;16.20;99.90
1429;DHT22;708;51.442;7.016;2023-05-07T05:10:23;16.20;99.90
1429;DHT22;708;51.442;7.016;2023-05-07T05:12:50;16.20;99.90
1429;DHT22;708;51.442;7.016;2023-05-07T05:15:17;16.20;99.90
1429;DHT22;708;51.442;7.016;2023-05-07T05:17:44;16.10;99.90
1429;DHT22;708;51.442;7.016;2023-05-07T05:20:11;16.20;99.90
1429;DHT22;708;51.442;7.016;2023-05-07T05:22:38;16.30;99.90
1429;DHT22;708;51.442;7.016;2023-05-07T05:25:07;16.40;99.90
1429;DHT22;708;51.442;7.016;2023-05-07T05:27:34;16.50;99.90
1429;DHT22;708;51.442;7.016;2023-05-07T05:30:05;16.70;99.90
1429;DHT22;708;51.442;7.016;2023-05-07T05:32:32;17.00;99.90
1429;DHT22;708;51.442;7.016;2023-05-07T05:34:59;17.40;84.80
1429;DHT22;708;51.442;7.016;2023-05-07T05:37:25;17.70;50.80
1429;DHT22;708;51.442;7.016;2023-05-07T05:39:52;17.80;29.80
1429;DHT22;708;51.442;7.016;2023-05-07T05:42:21;17.80;24.20
1429;DHT22;708;51.442;7.016;2023-05-07T05:44:48;17.90;18.80
1429;DHT22;708;51.442;7.016;2023-05-07T05:47:15;18.00;16.80
1429;DHT22;708;51.442;7.016;2023-05-07T05:49:41;18.10;7.10
1429;DHT22;708;51.442;7.016;2023-05-07T05:52:09;18.20;2.50
1429;DHT22;708;51.442;7.016;2023-05-07T05:54:35;18.30;1.00
1429;DHT22;708;51.442;7.016;2023-05-07T05:57:02;18.60;1.00
1429;DHT22;708;51.442;7.016;2023-05-07T05:59:30;18.90;1.00
1429;DHT22;708;51.442;7.016;2023-05-07T06:01:59;19.40;1.00
1429;DHT22;708;51.442;7.016;2023-05-07T06:04:26;19.80;1.00
1429;DHT22;708;51.442;7.016;2023-05-07T06:06:53;19.90;1.00
1429;DHT22;708;51.442;7.016;2023-05-07T06:09:20;20.10;1.00
1429;DHT22;708;51.442;7.016;2023-05-07T06:11:47;20.20;1.00
1429;DHT22;708;51.442;7.016;2023-05-07T06:14:13;20.10;1.00
1429;DHT22;708;51.442;7.016;2023-05-07T06:16:41;20.10;1.00
1429;DHT22;708;51.442;7.016;2023-05-07T06:19:08;20.10;1.00
1429;DHT22;708;51.442;7.016;2023-05-07T06:21:35;20.10;1.00
1429;DHT22;708;51.442;7.016;2023-05-07T06:24:02;20.10;1.00
1429;DHT22;708;51.442;7.016;2023-05-07T06:26:28;20.30;1.00
1429;DHT22;708;51.442;7.016;2023-05-07T06:28:57;20.40;1.00
1429;DHT22;708;51.442;7.016;2023-05-07T06:31:29;20.50;1.00
1429;DHT22;708;51.442;7.016;2023-05-07T06:33:57;20.50;1.00
1429;DHT22;708;51.442;7.016;2023-05-07T06:36:27;20.60;1.00
1429;DHT22;708;51.442;7.016;2023-05-07T06:38:54;20.80;99.90
1429;DHT22;708;51.442;7.016;2023-05-07T06:41:21;20.90;99.90
1429;DHT22;708;51.442;7.016;2023-05-07T06:43:51;21.00;99.90
1429;DHT22;708;51.442;7.016;2023-05-07T06:46:20;21.00;99.90
1429;DHT22;708;51.442;7.016;2023-05-07T06:48:47;20.90;99.90
1429;DHT22;708;51.442;7.016;2023-05-07T06:51:15;20.60;99.90
1429;DHT22;708;51.442;7.016;2023-05-07T06:53:42;20.50;99.90
1429;DHT22;708;51.442;7.016;2023-05-07T06:56:08;20.30;99.90
1429;DHT22;708;51.442;7.016;2023-05-07T06:58:35;20.30;1.00
1429;DHT22;708;51.442;7.016;2023-05-07T07:01:02;20.40;1.00
1429;DHT22;708;51.442;7.016;2023-05-07T07:03:33;20.50;1.00
1429;DHT22;708;51.442;7.016;2023-05-07T07:06:00;20.70;99.90
1429;DHT22;708;51.442;7.016;2023-05-07T07:08:28;20.80;99.90
1429;DHT22;708;51.442;7.016;2023-05-07T07:10:55;20.80;99.90
1429;DHT22;708;51.442;7.016;2023-05-07T07:13:22;20.80;99.90
1429;DHT22;708;51.442;7.016;2023-05-07T07:15:49;20.70;99.90
1429;DHT22;708;51.442;7.016;2023-05-07T07:18:16;20.80;99.90
1429;DHT22;708;51.442;7.016;2023-05-07T07:20:43;21.00;99.90
1429;DHT22;708;51.442;7.016;2023-05-07T07:23:10;21.10;99.50
1429;DHT22;708;51.442;7.016;2023-05-07T07:25:38;21.30;1.00
1429;DHT22;708;51.442;7.016;2023-05-07T07:28:06;21.40;99.90
1429;DHT22;708;51.442;7.016;2023-05-07T07:30:33;21.40;1.00
1429;DHT22;708;51.442;7.016;2023-05-07T07:33:00;21.30;1.00
1429;DHT22;708;51.442;7.016;2023-05-07T07:35:28;21.50;1.00
1429;DHT22;708;51.442;7.016;2023-05-07T07:37:55;21.60;99.90
1429;DHT22;708;51.442;7.016;2023-05-07T07:40:22;21.50;99.90
1429;DHT22;708;51.442;7.016;2023-05-07T07:42:50;21.60;99.90
1429;DHT22;708;51.442;7.016;2023-05-07T07:45:17;21.60;99.90
1429;DHT22;708;51.442;7.016;2023-05-07T07:47:44;21.70;99.90
1429;DHT22;708;51.442;7.016;2023-05-07T07:50:10;22.00;1.00
1429;DHT22;708;51.442;7.016;2023-05-07T07:52:37;22.10;1.00
1429;DHT22;708;51.442;7.016;2023-05-07T07:55:05;22.10;1.00
1429;DHT22;708;51.442;7.016;2023-05-07T07:57:33;22.20;1.00
1429;DHT22;708;51.442;7.016;2023-05-07T08:00:01;22.10;1.00
1429;DHT22;708;51.442;7.016;2023-05-07T08:02:28;21.80;1.00
1429;DHT22;708;51.442;7.016;2023-05-07T08:04:55;21.60;1.00
1429;DHT22;708;51.442;7.016;2023-05-07T08:07:21;21.40;1.00
1429;DHT22;708;51.442;7.016;2023-05-07T08:09:48;21.50;1.00
1429;DHT22;708;51.442;7.016;2023-05-07T08:12:15;21.50;1.00
1429;DHT22;708;51.442;7.016;2023-05-07T08:14:42;21.60;1.00
1429;DHT22;708;51.442;7.016;2023-05-07T08:17:10;21.90;1.00
1429;DHT22;708;51.442;7.016;2023-05-07T08:19:37;22.30;1.00
1429;DHT22;708;51.442;7.016;2023-05-07T08:22:04;22.80;99.90
1429;DHT22;708;51.442;7.016;2023-05-07T08:24:31;23.50;99.90
1429;DHT22;708;51.442;7.016;2023-05-07T08:26:57;24.10;99.90
1429;DHT22;708;51.442;7.016;2023-05-07T08:29:24;25.00;99.90
1429;DHT22;708;51.442;7.016;2023-05-07T08:31:51;26.00;99.90
1429;DHT22;708;51.442;7.016;2023-05-07T08:34:19;26.50;99.90
1429;DHT22;708;51.442;7.016;2023-05-07T08:36:46;27.30;99.90
1429;DHT22;708;51.442;7.016;2023-05-07T08:39:14;28.00;99.90
1429;DHT22;708;51.442;7.016;2023-05-07T08:41:45;28.80;99.90
1429;DHT22;708;51.442;7.016;2023-05-07T08:44:13;29.60;92.90
1429;DHT22;708;51.442;7.016;2023-05-07T08:46:45;30.20;83.90
1429;DHT22;708;51.442;7.016;2023-05-07T08:49:13;30.00;73.50
1429;DHT22;708;51.442;7.016;2023-05-07T08:51:42;29.30;68.90
1429;DHT22;708;51.442;7.016;2023-05-07T08:54:11;28.60;72.70
1429;DHT22;708;51.442;7.016;2023-05-07T08:56:38;28.10;73.20
1429;DHT22;708;51.442;7.016;2023-05-07T08:59:06;28.20;75.40
1429;DHT22;708;51.442;7.016;2023-05-07T09:01:33;28.70;72.80
1429;DHT22;708;51.442;7.016;2023-05-07T09:04:01;29.20;69.20
1429;DHT22;708;51.442;7.016;2023-05-07T09:06:28;29.60;63.80
1429;DHT22;708;51.442;7.016;2023-05-07T09:08:56;30.30;63.20
1429;DHT22;708;51.442;7.016;2023-05-07T09:11:26;31.70;56.40
1429;DHT22;708;51.442;7.016;2023-05-07T09:13:54;32.80;50.60
1429;DHT22;708;51.442;7.016;2023-05-07T09:16:21;33.10;41.10
1429;DHT22;708;51.442;7.016;2023-05-07T09:18:51;33.10;36.00
1429;DHT22;708;51.442;7.016;2023-05-07T09:21:18;33.20;33.80
1429;DHT22;708;51.442;7.016;2023-05-07T09:23:45;33.30;32.10
1429;DHT22;708;51.442;7.016;2023-05-07T09:26:15;33.20;29.60
1429;DHT22;708;51.442;7.016;2023-05-07T09:28:42;33.20;27.70
1429;DHT22;708;51.442;7.016;2023-05-07T09:31:10;33.10;27.60
1429;DHT22;708;51.442;7.016;2023-05-07T09:33:37;32.80;26.40
1429;DHT22;708;51.442;7.016;2023-05-07T09:36:04;32.10;25.80
1429;DHT22;708;51.442;7.016;2023-05-07T09:38:32;31.50;25.20
1429;DHT22;708;51.442;7.016;2023-05-07T09:41:03;31.50;24.80
1429;DHT22;708;51.442;7.016;2023-05-07T09:43:33;31.30;25.10
1429;DHT22;708;51.442;7.016;2023-05-07T09:46:04;31.40;25.90
1429;DHT22;708;51.442;7.016;2023-05-07T09:48:33;31.60;26.40
1429;DHT22;708;51.442;7.016;2023-05-07T09:51:02;31.50;26.80
1429;DHT22;708;51.442;7.016;2023-05-07T09:53:33;31.10;27.20
1429;DHT22;708;51.442;7.016;2023-05-07T09:56:01;30.30;27.40
1429;DHT22;708;51.442;7.016;2023-05-07T09:58:28;29.60;27.30
1429;DHT22;708;51.442;7.016;2023-05-07T10:00:57;29.00;29.40
1429;DHT22;708;51.442;7.016;2023-05-07T10:03:24;28.20;33.90
1429;DHT22;708;51.442;7.016;2023-05-07T10:05:56;28.20;37.40
1429;DHT22;708;51.442;7.016;2023-05-07T10:08:24;28.10;38.10
1429;DHT22;708;51.442;7.016;2023-05-07T10:10:51;28.20;54.30
1429;DHT22;708;51.442;7.016;2023-05-07T10:13:19;28.50;48.80
1429;DHT22;708;51.442;7.016;2023-05-07T10:15:46;28.80;43.60
1429;DHT22;708;51.442;7.016;2023-05-07T10:18:15;29.10;41.50
1429;DHT22;708;51.442;7.016;2023-05-07T10:20:44;28.90;40.30
1429;DHT22;708;51.442;7.016;2023-05-07T10:23:14;28.50;40.80
1429;DHT22;708;51.442;7.016;2023-05-07T10:25:43;28.20;43.70
1429;DHT22;708;51.442;7.016;2023-05-07T10:28:11;28.00;46.70
1429;DHT22;708;51.442;7.016;2023-05-07T10:30:52;28.10;45.20
1429;DHT22;708;51.442;7.016;2023-05-07T10:33:27;27.80;46.40
1429;DHT22;708;51.442;7.016;2023-05-07T10:35:58;27.60;46.20
1429;DHT22;708;51.442;7.016;2023-05-07T10:38:26;27.50;47.80
1429;DHT22;708;51.442;7.016;2023-05-07T10:40:53;27.30;48.30
1429;DHT22;708;51.442;7.016;2023-05-07T10:43:20;27.20;50.00
1429;DHT22;708;51.442;7.016;2023-05-07T10:46:14;26.80;53.20
1429;DHT22;708;51.442;7.016;2023-05-07T10:49:08;26.70;58.50
1429;DHT22;708;51.442;7.016;2023-05-07T10:51:37;26.30;66.50
1429;DHT22;708;51.442;7.016;2023-05-07T10:54:20;26.30;67.00
1429;DHT22;708;51.442;7.016;2023-05-07T10:56:47;26.10;69.30
1429;DHT22;708;51.442;7.016;2023-05-07T10:59:35;26.30;67.20
1429;DHT22;708;51.442;7.016;2023-05-07T11:02:07;26.40;68.90
1429;DHT22;708;51.442;7.016;2023-05-07T11:04:38;26.50;73.90
1429;DHT22;708;51.442;7.016;2023-05-07T11:07:25;26.70;73.60
1429;DHT22;708;51.442;7.016;2023-05-07T11:10:03;27.00;67.10
1429;DHT22;708;51.442;7.016;2023-05-07T11:12:53;27.20;59.90
1429;DHT22;708;51.442;7.016;2023-05-07T11:15:40;27.00;55.90
1429;DHT22;708;51.442;7.016;2023-05-07T11:18:09;27.30;54.30
1429;DHT22;708;51.442;7.016;2023-05-07T11:20:48;27.10;52.00
1429;DHT22;708;51.442;7.016;2023-05-07T11:23:56;27.00;53.20
1429;DHT22;708;51.442;7.016;2023-05-07T11:26:26;27.00;53.40
1429;DHT22;708;51.442;7.016;2023-05-07T11:28:53;27.30;53.20
1429;DHT22;708;51.442;7.016;2023-05-07T11:31:25;27.30;50.70
1429;DHT22;708;51.442;7.016;2023-05-07T11:33:54;27.00;52.30
1429;DHT22;708;51.442;7.016;2023-05-07T11:36:23;26.70;53.80
1429;DHT22;708;51.442;7.016;2023-05-07T11:38:50;26.50;52.50
1429;DHT22;708;51.442;7.016;2023-05-07T11:41:17;26.40;54.20
1429;DHT22;708;51.442;7.016;2023-05-07T11:43:57;26.30;54.30
1429;DHT22;708;51.442;7.016;2023-05-07T11:46:27;26.00;57.40
1429;DHT22;708;51.442;7.016;2023-05-07T11:48:55;26.10;61.10
1429;DHT22;708;51.442;7.016;2023-05-07T11:51:24;26.40;59.30
1429;DHT22;708;51.442;7.016;2023-05-07T11:53:52;26.60;56.30
1429;DHT22;708;51.442;7.016;2023-05-07T11:56:19;26.60;56.30
1429;DHT22;708;51.442;7.016;2023-05-07T11:58:47;26.60;56.80
1429;DHT22;708;51.442;7.016;2023-05-07T12:01:15;26.50;56.90
1429;DHT22;708;51.442;7.016;2023-05-07T12:03:44;26.10;57.90
1429;DHT22;708;51.442;7.016;2023-05-07T12:06:11;26.10;64.40
1429;DHT22;708;51.442;7.016;2023-05-07T12:08:41;26.30;65.60
1429;DHT22;708;51.442;7.016;2023-05-07T12:11:09;26.00;63.00
1429;DHT22;708;51.442;7.016;2023-05-07T12:13:41;25.80;65.90
1429;DHT22;708;51.442;7.016;2023-05-07T12:16:09;25.70;69.50
1429;DHT22;708;51.442;7.016;2023-05-07T12:18:37;25.40;78.50
1429;DHT22;708;51.442;7.016;2023-05-07T12:21:07;25.20;87.20
1429;DHT22;708;51.442;7.016;2023-05-07T12:23:35;25.20;87.60
1429;DHT22;708;51.442;7.016;2023-05-07T12:26:05;25.30;90.50
1429;DHT22;708;51.442;7.016;2023-05-07T12:28:36;25.20;88.40
1429;DHT22;708;51.442;7.016;2023-05-07T12:31:04;25.10;90.20
1429;DHT22;708;51.442;7.016;2023-05-07T12:33:32;25.20;91.10
1429;DHT22;708;51.442;7.016;2023-05-07T12:36:00;25.30;91.10
1429;DHT22;708;51.442;7.016;2023-05-07T12:38:35;25.20;84.80
1429;DHT22;708;51.442;7.016;2023-05-07T12:41:02;25.00;87.90
1429;DHT22;708;51.442;7.016;2023-05-07T12:43:30;25.00;90.50
1429;DHT22;708;51.442;7.016;2023-05-07T12:45:59;24.90;91.60
1429;DHT22;708;51.442;7.016;2023-05-07T12:48:27;24.90;90.60
1429;DHT22;708;51.442;7.016;2023-05-07T12:50:54;25.00;88.50
1429;DHT22;708;51.442;7.016;2023-05-07T12:53:24;24.90;91.40
1429;DHT22;708;51.442;7.016;2023-05-07T12:55:53;24.80;94.30
1429;DHT22;708;51.442;7.016;2023-05-07T12:58:22;24.60;98.20
1429;DHT22;708;51.442;7.016;2023-05-07T13:00:51;24.50;99.90
1429;DHT22;708;51.442;7.016;2023-05-07T13:03:23;24.40;99.90
1429;DHT22;708;51.442;7.016;2023-05-07T13:05:50;24.30;99.90
1429;DHT22;708;51.442;7.016;2023-05-07T13:08:24;23.90;99.90
1429;DHT22;708;51.442;7.016;2023-05-07T13:10:51;23.60;99.90
1429;DHT22;708;51.442;7.016;2023-05-07T13:13:18;23.60;99.90
1429;DHT22;708;51.442;7.016;2023-05-07T13:15:45;23.30;99.90
1429;DHT22;708;51.442;7.016;2023-05-07T13:18:14;23.10;99.90
1429;DHT22;708;51.442;7.016;2023-05-07T13:20:40;22.90;99.90
1429;DHT22;708;51.442;7.016;2023-05-07T13:23:07;22.90;99.90
1429;DHT22;708;51.442;7.016;2023-05-07T13:25:34;22.80;99.90
1429;DHT22;708;51.442;7.016;2023-05-07T13:28:01;22.70;99.90
1429;DHT22;708;51.442;7.016;2023-05-07T13:30:28;22.60;99.90
1429;DHT22;708;51.442;7.016;2023-05-07T13:32:56;22.40;99.90
1429;DHT22;708;51.442;7.016;2023-05-07T13:35:24;22.30;99.90
1429;DHT22;708;51.442;7.016;2023-05-07T13:37:51;22.40;99.90
1429;DHT22;708;51.442;7.016;2023-05-07T13:40:18;22.40;99.90
1429;DHT22;708;51.442;7.016;2023-05-07T13:42:45;22.40;99.90
1429;DHT22;708;51.442;7.016;2023-05-07T13:45:12;22.50;99.90
1429;DHT22;708;51.442;7.016;2023-05-07T13:47:39;22.50;99.90
1429;DHT22;708;51.442;7.016;2023-05-07T13:50:07;22.50;99.90
1429;DHT22;708;51.442;7.016;2023-05-07T13:52:35;22.40;99.90
1429;DHT22;708;51.442;7.016;2023-05-07T13:55:03;22.20;99.90
1429;DHT22;708;51.442;7.016;2023-05-07T13:57:30;22.10;99.90
1429;DHT22;708;51.442;7.016;2023-05-07T13:59:56;21.90;1.00
1429;DHT22;708;51.442;7.016;2023-05-07T14:02:23;21.40;1.00
1429;DHT22;708;51.442;7.016;2023-05-07T14:04:50;20.90;11.60
1429;DHT22;708;51.442;7.016;2023-05-07T14:07:17;20.60;68.60
1429;DHT22;708;51.442;7.016;2023-05-07T14:09:45;20.40;1.00
1429;DHT22;708;51.442;7.016;2023-05-07T14:12:11;20.20;1.00
1429;DHT22;708;51.442;7.016;2023-05-07T14:14:38;20.00;99.90
1429;DHT22;708;51.442;7.016;2023-05-07T14:17:05;19.80;99.90
1429;DHT22;708;51.442;7.016;2023-05-07T14:19:32;19.70;1.00
1429;DHT22;708;51.442;7.016;2023-05-07T14:21:58;19.60;1.00
1429;DHT22;708;51.442;7.016;2023-05-07T14:24:25;19.50;1.00
1429;DHT22;708;51.442;7.016;2023-05-07T14:26:53;19.30;1.00
1429;DHT22;708;51.442;7.016;2023-05-07T14:29:20;19.30;1.00
1429;DHT22;708;51.442;7.016;2023-05-07T14:31:47;19.30;1.00
1429;DHT22;708;51.442;7.016;2023-05-07T14:34:14;19.30;17.30
1429;DHT22;708;51.442;7.016;2023-05-07T14:36:41;19.40;29.90
1429;DHT22;708;51.442;7.016;2023-05-07T14:39:09;19.30;13.70
1429;DHT22;708;51.442;7.016;2023-05-07T14:41:36;19.30;1.00
1429;DHT22;708;51.442;7.016;2023-05-07T14:44:04;19.30;3.10
1429;DHT22;708;51.442;7.016;2023-05-07T14:46:31;19.40;1.00
1429;DHT22;708;51.442;7.016;2023-05-07T14:48:58;19.40;1.00
1429;DHT22;708;51.442;7.016;2023-05-07T14:51:24;19.50;1.00
1429;DHT22;708;51.442;7.016;2023-05-07T14:53:53;19.60;1.00
1429;DHT22;708;51.442;7.016;2023-05-07T14:56:20;19.70;1.00
1429;DHT22;708;51.442;7.016;2023-05-07T14:58:47;19.80;1.00
1429;DHT22;708;51.442;7.016;2023-05-07T15:01:16;19.90;1.00
1429;DHT22;708;51.442;7.016;2023-05-07T15:03:42;20.00;1.00
1429;DHT22;708;51.442;7.016;2023-05-07T15:06:09;20.20;1.00
1429;DHT22;708;51.442;7.016;2023-05-07T15:08:36;20.30;1.00
1429;DHT22;708;51.442;7.016;2023-05-07T15:11:03;20.50;1.00
1429;DHT22;708;51.442;7.016;2023-05-07T15:13:30;20.60;1.00
1429;DHT22;708;51.442;7.016;2023-05-07T15:15:56;20.80;1.00
1429;DHT22;708;51.442;7.016;2023-05-07T15:18:24;21.00;1.00
1429;DHT22;708;51.442;7.016;2023-05-07T15:20:51;21.30;99.90
1429;DHT22;708;51.442;7.016;2023-05-07T15:23:18;21.30;99.90
1429;DHT22;708;51.442;7.016;2023-05-07T15:25:45;21.50;99.90
1429;DHT22;708;51.442;7.016;2023-05-07T15:28:12;21.60;99.90
1429;DHT22;708;51.442;7.016;2023-05-07T15:30:39;21.70;99.90
1429;DHT22;708;51.442;7.016;2023-05-07T15:33:06;21.70;99.90
1429;DHT22;708;51.442;7.016;2023-05-07T15:35:34;21.80;99.90
1429;DHT22;708;51.442;7.016;2023-05-07T15:38:01;21.80;1.00
1429;DHT22;708;51.442;7.016;2023-05-07T15:40:29;21.90;99.90
1429;DHT22;708;51.442;7.016;2023-05-07T15:42:56;21.80;44.00
1429;DHT22;708;51.442;7.016;2023-05-07T15:45:24;21.90;97.80
1429;DHT22;708;51.442;7.016;2023-05-07T15:47:50;22.00;99.90
1429;DHT22;708;51.442;7.016;2023-05-07T15:50:17;21.90;99.90
1429;DHT22;708;51.442;7.016;2023-05-07T15:52:46;21.90;99.90
1429;DHT22;708;51.442;7.016;2023-05-07T15:55:12;21.90;99.90
1429;DHT22;708;51.442;7.016;2023-05-07T15:57:40;21.90;1.00
1429;DHT22;708;51.442;7.016;2023-05-07T16:00:07;21.80;1.00
1429;DHT22;708;51.442;7.016;2023-05-07T16:02:37;21.90;99.90
1429;DHT22;708;51.442;7.016;2023-05-07T16:05:05;21.70;1.00
1429;DHT22;708;51.442;7.016;2023-05-07T16:07:33;21.60;1.00
1429;DHT22;708;51.442;7.016;2023-05-07T16:10:02;21.30;2.10
1429;DHT22;708;51.442;7.016;2023-05-07T16:12:29;21.20;99.90
1429;DHT22;708;51.442;7.016;2023-05-07T16:14:55;21.20;99.90
1429;DHT22;708;51.442;7.016;2023-05-07T16:17:22;21.00;99.90
1429;DHT22;708;51.442;7.016;2023-05-07T16:19:49;21.00;99.90
1429;DHT22;708;51.442;7.016;2023-05-07T16:22:16;20.90;99.90
1429;DHT22;708;51.442;7.016;2023-05-07T16:24:43;20.80;99.90
1429;DHT22;708;51.442;7.016;2023-05-07T16:27:12;20.70;99.90